sensor_id;sensor_type;location;lat;lon;timestamp;P1;durP1;ratioP1;P2;durP2;ratioP2
26536;SDS011;14204;51.262;5.488;2022-07-24T00:01:28;7.82;;;6.75;;
26536;SDS011;14204;51.262;5.488;2022-07-24T00:03:54;6.88;;;6.10;;
26536;SDS011;14204;51.262;5.488;2022-07-24T00:06:20;8.95;;;7.00;;
26536;SDS011;14204;51.262;5.488;2022-07-24T00:08:45;7.53;;;6.75;;
26536;SDS011;14204;51.262;5.488;2022-07-24T00:11:11;9.00;;;7.05;;
26536;SDS011;14204;51.262;5.488;2022-07-24T00:13:38;7.38;;;6.68;;
26536;SDS011;14204;51.262;5.488;2022-07-24T00:16:04;7.60;;;6.90;;
26536;SDS011;14204;51.262;5.488;2022-07-24T00:18:32;10.00;;;7.90;;
26536;SDS011;14204;51.262;5.488;2022-07-24T00:20:58;11.35;;;7.50;;
26536;SDS011;14204;51.262;5.488;2022-07-24T00:23:24;7.80;;;7.07;;
26536;SDS011;14204;51.262;5.488;2022-07-24T00:25:50;9.43;;;6.47;;
26536;SDS011;14204;51.262;5.488;2022-07-24T00:28:16;9.07;;;6.90;;
26536;SDS011;14204;51.262;5.488;2022-07-24T00:30:42;8.90;;;6.72;;
26536;SDS011;14204;51.262;5.488;2022-07-24T00:33:08;8.55;;;6.53;;
26536;SDS011;14204;51.262;5.488;2022-07-24T00:35:34;9.63;;;6.38;;
26536;SDS011;14204;51.262;5.488;2022-07-24T00:38:00;9.65;;;6.70;;
26536;SDS011;14204;51.262;5.488;2022-07-24T00:40:26;9.60;;;7.22;;
26536;SDS011;14204;51.262;5.488;2022-07-24T00:42:52;8.18;;;7.38;;
26536;SDS011;14204;51.262;5.488;2022-07-24T00:45:18;8.63;;;7.72;;
26536;SDS011;14204;51.262;5.488;2022-07-24T00:47:44;9.07;;;8.15;;
26536;SDS011;14204;51.262;5.488;2022-07-24T00:50:10;8.30;;;7.55;;
26536;SDS011;14204;51.262;5.488;2022-07-24T00:52:36;9.40;;;7.88;;
26536;SDS011;14204;51.262;5.488;2022-07-24T00:55:03;13.20;;;9.23;;
26536;SDS011;14204;51.262;5.488;2022-07-24T00:57:30;13.15;;;9.32;;
26536;SDS011;14204;51.262;5.488;2022-07-24T00:59:56;10.57;;;9.38;;
26536;SDS011;14204;51.262;5.488;2022-07-24T01:02:22;9.13;;;8.20;;
26536;SDS011;14204;51.262;5.488;2022-07-24T01:04:49;11.13;;;8.48;;
26536;SDS011;14204;51.262;5.488;2022-07-24T01:07:15;10.15;;;8.15;;
26536;SDS011;14204;51.262;5.488;2022-07-24T01:09:41;9.00;;;7.75;;
26536;SDS011;14204;51.262;5.488;2022-07-24T01:12:07;10.75;;;7.13;;
26536;SDS011;14204;51.262;5.488;2022-07-24T01:14:33;7.40;;;6.43;;
26536;SDS011;14204;51.262;5.488;2022-07-24T01:16:59;7.20;;;6.60;;
26536;SDS011;14204;51.262;5.488;2022-07-24T01:19:25;8.18;;;7.07;;
26536;SDS011;14204;51.262;5.488;2022-07-24T01:21:51;8.35;;;6.85;;
26536;SDS011;14204;51.262;5.488;2022-07-24T01:24:18;7.28;;;6.57;;
26536;SDS011;14204;51.262;5.488;2022-07-24T01:26:45;9.68;;;6.80;;
26536;SDS011;14204;51.262;5.488;2022-07-24T01:29:12;9.18;;;6.88;;
26536;SDS011;14204;51.262;5.488;2022-07-24T01:31:39;7.40;;;6.75;;
26536;SDS011;14204;51.262;5.488;2022-07-24T01:34:05;7.57;;;6.45;;
26536;SDS011;14204;51.262;5.488;2022-07-24T01:36:30;7.68;;;6.75;;
26536;SDS011;14204;51.262;5.488;2022-07-24T01:38:56;7.88;;;7.07;;
26536;SDS011;14204;51.262;5.488;2022-07-24T01:41:22;9.30;;;8.10;;
26536;SDS011;14204;51.262;5.488;2022-07-24T01:43:48;9.82;;;8.82;;
26536;SDS011;14204;51.262;5.488;2022-07-24T01:46:13;10.13;;;9.05;;
26536;SDS011;14204;51.262;5.488;2022-07-24T01:48:40;11.70;;;8.95;;
26536;SDS011;14204;51.262;5.488;2022-07-24T01:51:07;9.30;;;8.30;;
26536;SDS011;14204;51.262;5.488;2022-07-24T01:53:33;9.93;;;8.65;;
26536;SDS011;14204;51.262;5.488;2022-07-24T01:55:59;11.68;;;9.82;;
26536;SDS011;14204;51.262;5.488;2022-07-24T01:58:24;11.88;;;8.10;;
26536;SDS011;14204;51.262;5.488;2022-07-24T02:00:50;11.43;;;9.15;;
26536;SDS011;14204;51.262;5.488;2022-07-24T02:03:17;11.88;;;8.98;;
26536;SDS011;14204;51.262;5.488;2022-07-24T02:05:43;10.05;;;9.07;;
26536;SDS011;14204;51.262;5.488;2022-07-24T02:08:09;11.38;;;8.45;;
26536;SDS011;14204;51.262;5.488;2022-07-24T02:10:35;8.70;;;7.80;;
26536;SDS011;14204;51.262;5.488;2022-07-24T02:13:01;8.32;;;7.55;;
26536;SDS011;14204;51.262;5.488;2022-07-24T02:15:26;10.52;;;8.00;;
26536;SDS011;14204;51.262;5.488;2022-07-24T02:17:54;8.13;;;7.35;;
26536;SDS011;14204;51.262;5.488;2022-07-24T02:20:21;11.18;;;7.90;;
26536;SDS011;14204;51.262;5.488;2022-07-24T02:22:47;9.98;;;8.40;;
26536;SDS011;14204;51.262;5.488;2022-07-24T02:25:13;8.23;;;7.43;;
26536;SDS011;14204;51.262;5.488;2022-07-24T02:27:39;8.23;;;7.43;;
26536;SDS011;14204;51.262;5.488;2022-07-24T02:30:06;10.77;;;8.05;;
26536;SDS011;14204;51.262;5.488;2022-07-24T02:32:34;11.27;;;8.73;;
26536;SDS011;14204;51.262;5.488;2022-07-24T02:35:00;9.98;;;8.13;;
26536;SDS011;14204;51.262;5.488;2022-07-24T02:37:26;10.02;;;7.45;;
26536;SDS011;14204;51.262;5.488;2022-07-24T02:39:52;10.43;;;7.45;;
26536;SDS011;14204;51.262;5.488;2022-07-24T02:42:17;10.32;;;8.75;;
26536;SDS011;14204;51.262;5.488;2022-07-24T02:44:43;8.93;;;8.00;;
26536;SDS011;14204;51.262;5.488;2022-07-24T02:47:09;10.38;;;9.23;;
26536;SDS011;14204;51.262;5.488;2022-07-24T02:49:34;10.27;;;9.20;;
26536;SDS011;14204;51.262;5.488;2022-07-24T02:52:01;10.90;;;9.32;;
26536;SDS011;14204;51.262;5.488;2022-07-24T02:54:27;12.18;;;10.73;;
26536;SDS011;14204;51.262;5.488;2022-07-24T02:56:53;14.07;;;10.93;;
26536;SDS011;14204;51.262;5.488;2022-07-24T02:59:19;10.35;;;9.27;;
26536;SDS011;14204;51.262;5.488;2022-07-24T03:01:45;15.18;;;10.30;;
26536;SDS011;14204;51.262;5.488;2022-07-24T03:04:11;12.20;;;10.18;;
26536;SDS011;14204;51.262;5.488;2022-07-24T03:06:36;11.88;;;10.60;;
26536;SDS011;14204;51.262;5.488;2022-07-24T03:09:02;14.80;;;10.23;;
26536;SDS011;14204;51.262;5.488;2022-07-24T03:11:28;12.15;;;10.02;;
26536;SDS011;14204;51.262;5.488;2022-07-24T03:13:54;11.23;;;9.63;;
26536;SDS011;14204;51.262;5.488;2022-07-24T03:16:20;12.32;;;11.07;;
26536;SDS011;14204;51.262;5.488;2022-07-24T03:18:45;11.68;;;10.02;;
26536;SDS011;14204;51.262;5.488;2022-07-24T03:21:13;12.18;;;9.65;;
26536;SDS011;14204;51.262;5.488;2022-07-24T03:23:40;11.05;;;9.90;;
26536;SDS011;14204;51.262;5.488;2022-07-24T03:26:05;11.35;;;9.48;;
26536;SDS011;14204;51.262;5.488;2022-07-24T03:28:32;10.65;;;9.30;;
26536;SDS011;14204;51.262;5.488;2022-07-24T03:30:58;9.85;;;8.57;;
26536;SDS011;14204;51.262;5.488;2022-07-24T03:33:25;9.75;;;8.32;;
26536;SDS011;14204;51.262;5.488;2022-07-24T03:35:51;10.93;;;7.75;;
26536;SDS011;14204;51.262;5.488;2022-07-24T03:38:17;14.35;;;8.65;;
26536;SDS011;14204;51.262;5.488;2022-07-24T03:40:43;11.85;;;7.82;;
26536;SDS011;14204;51.262;5.488;2022-07-24T03:43:09;10.23;;;8.55;;
26536;SDS011;14204;51.262;5.488;2022-07-24T03:45:35;12.15;;;8.77;;
26536;SDS011;14204;51.262;5.488;2022-07-24T03:48:00;12.65;;;11.32;;
26536;SDS011;14204;51.262;5.488;2022-07-24T03:50:26;13.40;;;11.95;;
26536;SDS011;14204;51.262;5.488;2022-07-24T03:52:52;9.57;;;8.57;;
26536;SDS011;14204;51.262;5.488;2022-07-24T03:55:18;10.38;;;9.38;;
26536;SDS011;14204;51.262;5.488;2022-07-24T03:57:44;11.65;;;10.45;;
26536;SDS011;14204;51.262;5.488;2022-07-24T04:00:10;15.38;;;10.07;;
26536;SDS011;14204;51.262;5.488;2022-07-24T04:02:36;11.40;;;10.10;;
26536;SDS011;14204;51.262;5.488;2022-07-24T04:05:02;13.60;;;10.00;;
26536;SDS011;14204;51.262;5.488;2022-07-24T04:07:28;10.70;;;9.50;;
26536;SDS011;14204;51.262;5.488;2022-07-24T04:09:54;14.43;;;12.43;;
26536;SDS011;14204;51.262;5.488;2022-07-24T04:12:19;16.30;;;12.52;;
26536;SDS011;14204;51.262;5.488;2022-07-24T04:14:45;20.88;;;15.75;;
26536;SDS011;14204;51.262;5.488;2022-07-24T04:17:11;23.75;;;15.88;;
26536;SDS011;14204;51.262;5.488;2022-07-24T04:19:36;17.40;;;13.65;;
26536;SDS011;14204;51.262;5.488;2022-07-24T04:22:02;17.58;;;15.63;;
26536;SDS011;14204;51.262;5.488;2022-07-24T04:24:28;20.50;;;15.93;;
26536;SDS011;14204;51.262;5.488;2022-07-24T04:26:54;19.55;;;15.93;;
26536;SDS011;14204;51.262;5.488;2022-07-24T04:29:19;16.08;;;13.18;;
26536;SDS011;14204;51.262;5.488;2022-07-24T04:31:45;18.65;;;15.85;;
26536;SDS011;14204;51.262;5.488;2022-07-24T04:34:10;19.83;;;17.33;;
26536;SDS011;14204;51.262;5.488;2022-07-24T04:36:36;20.67;;;17.55;;
26536;SDS011;14204;51.262;5.488;2022-07-24T04:39:02;24.13;;;18.30;;
26536;SDS011;14204;51.262;5.488;2022-07-24T04:41:28;24.42;;;20.20;;
26536;SDS011;14204;51.262;5.488;2022-07-24T04:43:54;25.95;;;22.58;;
26536;SDS011;14204;51.262;5.488;2022-07-24T04:46:20;29.83;;;21.63;;
26536;SDS011;14204;51.262;5.488;2022-07-24T04:48:46;29.33;;;22.73;;
26536;SDS011;14204;51.262;5.488;2022-07-24T04:51:12;29.67;;;22.40;;
26536;SDS011;14204;51.262;5.488;2022-07-24T04:53:38;20.00;;;16.27;;
26536;SDS011;14204;51.262;5.488;2022-07-24T04:56:04;21.45;;;17.33;;
26536;SDS011;14204;51.262;5.488;2022-07-24T04:58:29;19.50;;;16.58;;
26536;SDS011;14204;51.262;5.488;2022-07-24T05:00:55;36.03;;;23.45;;
26536;SDS011;14204;51.262;5.488;2022-07-24T05:03:21;34.53;;;26.67;;
26536;SDS011;14204;51.262;5.488;2022-07-24T05:05:47;33.90;;;24.42;;
26536;SDS011;14204;51.262;5.488;2022-07-24T05:08:12;35.10;;;27.02;;
26536;SDS011;14204;51.262;5.488;2022-07-24T05:10:38;38.53;;;27.85;;
26536;SDS011;14204;51.262;5.488;2022-07-24T05:13:04;38.88;;;29.05;;
26536;SDS011;14204;51.262;5.488;2022-07-24T05:15:30;40.25;;;29.02;;
26536;SDS011;14204;51.262;5.488;2022-07-24T05:17:55;37.30;;;29.55;;
26536;SDS011;14204;51.262;5.488;2022-07-24T05:20:21;45.38;;;31.70;;
26536;SDS011;14204;51.262;5.488;2022-07-24T05:22:47;34.28;;;26.05;;
26536;SDS011;14204;51.262;5.488;2022-07-24T05:25:13;36.85;;;27.83;;
26536;SDS011;14204;51.262;5.488;2022-07-24T05:27:38;38.67;;;29.42;;
26536;SDS011;14204;51.262;5.488;2022-07-24T05:30:04;40.65;;;30.98;;
26536;SDS011;14204;51.262;5.488;2022-07-24T05:32:31;48.05;;;32.05;;
26536;SDS011;14204;51.262;5.488;2022-07-24T05:34:57;46.00;;;35.15;;
26536;SDS011;14204;51.262;5.488;2022-07-24T05:37:23;41.20;;;30.38;;
26536;SDS011;14204;51.262;5.488;2022-07-24T05:39:48;43.80;;;31.42;;
26536;SDS011;14204;51.262;5.488;2022-07-24T05:42:14;45.08;;;31.55;;
26536;SDS011;14204;51.262;5.488;2022-07-24T05:44:40;49.97;;;34.47;;
26536;SDS011;14204;51.262;5.488;2022-07-24T05:47:05;53.75;;;32.97;;
26536;SDS011;14204;51.262;5.488;2022-07-24T05:49:31;49.88;;;34.15;;
26536;SDS011;14204;51.262;5.488;2022-07-24T05:51:57;54.92;;;36.17;;
26536;SDS011;14204;51.262;5.488;2022-07-24T05:54:23;53.50;;;34.22;;
26536;SDS011;14204;51.262;5.488;2022-07-24T05:56:48;53.10;;;35.10;;
26536;SDS011;14204;51.262;5.488;2022-07-24T05:59:14;54.85;;;37.20;;
26536;SDS011;14204;51.262;5.488;2022-07-24T06:01:40;55.42;;;36.13;;
26536;SDS011;14204;51.262;5.488;2022-07-24T06:04:05;51.53;;;37.17;;
26536;SDS011;14204;51.262;5.488;2022-07-24T06:06:31;55.90;;;37.05;;
26536;SDS011;14204;51.262;5.488;2022-07-24T06:08:57;50.67;;;36.13;;
26536;SDS011;14204;51.262;5.488;2022-07-24T06:11:22;53.65;;;37.40;;
26536;SDS011;14204;51.262;5.488;2022-07-24T06:13:48;50.70;;;33.83;;
26536;SDS011;14204;51.262;5.488;2022-07-24T06:16:14;54.60;;;36.67;;
26536;SDS011;14204;51.262;5.488;2022-07-24T06:18:40;53.72;;;35.35;;
26536;SDS011;14204;51.262;5.488;2022-07-24T06:21:06;49.95;;;33.97;;
26536;SDS011;14204;51.262;5.488;2022-07-24T06:23:32;48.63;;;33.88;;
26536;SDS011;14204;51.262;5.488;2022-07-24T06:25:58;47.35;;;30.70;;
26536;SDS011;14204;51.262;5.488;2022-07-24T06:28:24;45.25;;;30.15;;
26536;SDS011;14204;51.262;5.488;2022-07-24T06:30:50;43.30;;;30.23;;
26536;SDS011;14204;51.262;5.488;2022-07-24T06:33:16;36.38;;;25.60;;
26536;SDS011;14204;51.262;5.488;2022-07-24T06:35:41;36.10;;;25.55;;
26536;SDS011;14204;51.262;5.488;2022-07-24T06:38:07;36.35;;;24.88;;
26536;SDS011;14204;51.262;5.488;2022-07-24T06:40:34;31.25;;;23.05;;
26536;SDS011;14204;51.262;5.488;2022-07-24T06:43:01;28.95;;;20.98;;
26536;SDS011;14204;51.262;5.488;2022-07-24T06:45:28;28.45;;;20.55;;
26536;SDS011;14204;51.262;5.488;2022-07-24T06:47:57;25.95;;;18.75;;
26536;SDS011;14204;51.262;5.488;2022-07-24T06:50:24;29.45;;;19.02;;
26536;SDS011;14204;51.262;5.488;2022-07-24T06:52:50;24.73;;;19.20;;
26536;SDS011;14204;51.262;5.488;2022-07-24T06:55:16;22.65;;;16.35;;
26536;SDS011;14204;51.262;5.488;2022-07-24T06:57:42;23.73;;;15.90;;
26536;SDS011;14204;51.262;5.488;2022-07-24T07:00:08;24.92;;;18.73;;
26536;SDS011;14204;51.262;5.488;2022-07-24T07:02:34;27.25;;;18.13;;
26536;SDS011;14204;51.262;5.488;2022-07-24T07:05:00;26.63;;;19.67;;
26536;SDS011;14204;51.262;5.488;2022-07-24T07:07:27;31.92;;;22.15;;
26536;SDS011;14204;51.262;5.488;2022-07-24T07:09:53;26.38;;;20.27;;
26536;SDS011;14204;51.262;5.488;2022-07-24T07:12:19;35.00;;;22.58;;
26536;SDS011;14204;51.262;5.488;2022-07-24T07:14:44;28.60;;;21.63;;
26536;SDS011;14204;51.262;5.488;2022-07-24T07:17:10;29.80;;;21.08;;
26536;SDS011;14204;51.262;5.488;2022-07-24T07:19:36;33.08;;;22.35;;
26536;SDS011;14204;51.262;5.488;2022-07-24T07:22:01;29.48;;;20.25;;
26536;SDS011;14204;51.262;5.488;2022-07-24T07:24:27;25.00;;;19.30;;
26536;SDS011;14204;51.262;5.488;2022-07-24T07:26:53;27.52;;;19.90;;
26536;SDS011;14204;51.262;5.488;2022-07-24T07:29:18;22.95;;;17.90;;
26536;SDS011;14204;51.262;5.488;2022-07-24T07:31:44;23.23;;;16.15;;
26536;SDS011;14204;51.262;5.488;2022-07-24T07:34:09;25.75;;;15.35;;
26536;SDS011;14204;51.262;5.488;2022-07-24T07:36:35;23.83;;;16.23;;
26536;SDS011;14204;51.262;5.488;2022-07-24T07:39:01;19.20;;;13.65;;
26536;SDS011;14204;51.262;5.488;2022-07-24T07:41:27;20.08;;;13.55;;
26536;SDS011;14204;51.262;5.488;2022-07-24T07:43:52;20.25;;;12.82;;
26536;SDS011;14204;51.262;5.488;2022-07-24T07:46:18;13.45;;;11.25;;
26536;SDS011;14204;51.262;5.488;2022-07-24T07:48:44;13.50;;;9.95;;
26536;SDS011;14204;51.262;5.488;2022-07-24T07:51:09;13.85;;;10.82;;
26536;SDS011;14204;51.262;5.488;2022-07-24T07:53:35;13.85;;;9.27;;
26536;SDS011;14204;51.262;5.488;2022-07-24T07:56:01;13.02;;;8.70;;
26536;SDS011;14204;51.262;5.488;2022-07-24T07:58:27;12.90;;;7.68;;
26536;SDS011;14204;51.262;5.488;2022-07-24T08:00:53;11.77;;;7.35;;
26536;SDS011;14204;51.262;5.488;2022-07-24T08:03:19;11.57;;;8.52;;
26536;SDS011;14204;51.262;5.488;2022-07-24T08:05:45;13.15;;;8.68;;
26536;SDS011;14204;51.262;5.488;2022-07-24T08:08:11;10.90;;;7.40;;
26536;SDS011;14204;51.262;5.488;2022-07-24T08:10:36;10.02;;;6.95;;
26536;SDS011;14204;51.262;5.488;2022-07-24T08:13:02;6.68;;;4.85;;
26536;SDS011;14204;51.262;5.488;2022-07-24T08:15:28;4.95;;;3.85;;
26536;SDS011;14204;51.262;5.488;2022-07-24T08:17:55;4.20;;;3.80;;
26536;SDS011;14204;51.262;5.488;2022-07-24T08:20:22;5.55;;;3.60;;
26536;SDS011;14204;51.262;5.488;2022-07-24T08:22:49;9.48;;;4.40;;
26536;SDS011;14204;51.262;5.488;2022-07-24T08:25:15;5.25;;;3.50;;
26536;SDS011;14204;51.262;5.488;2022-07-24T08:27:41;5.93;;;3.92;;
26536;SDS011;14204;51.262;5.488;2022-07-24T08:30:07;4.70;;;4.22;;
26536;SDS011;14204;51.262;5.488;2022-07-24T08:32:34;4.68;;;3.40;;
26536;SDS011;14204;51.262;5.488;2022-07-24T08:35:00;4.40;;;3.45;;
26536;SDS011;14204;51.262;5.488;2022-07-24T08:37:27;5.07;;;3.33;;
26536;SDS011;14204;51.262;5.488;2022-07-24T08:39:52;3.55;;;3.25;;
26536;SDS011;14204;51.262;5.488;2022-07-24T08:42:19;4.05;;;3.50;;
26536;SDS011;14204;51.262;5.488;2022-07-24T08:44:46;7.70;;;4.07;;
26536;SDS011;14204;51.262;5.488;2022-07-24T08:47:12;4.13;;;3.20;;
26536;SDS011;14204;51.262;5.488;2022-07-24T08:49:40;3.80;;;3.45;;
26536;SDS011;14204;51.262;5.488;2022-07-24T08:52:09;3.60;;;3.30;;
26536;SDS011;14204;51.262;5.488;2022-07-24T08:54:35;4.97;;;2.75;;
26536;SDS011;14204;51.262;5.488;2022-07-24T08:57:02;3.33;;;3.13;;
26536;SDS011;14204;51.262;5.488;2022-07-24T08:59:28;3.13;;;2.92;;
26536;SDS011;14204;51.262;5.488;2022-07-24T09:01:54;4.05;;;3.20;;
26536;SDS011;14204;51.262;5.488;2022-07-24T09:06:58;3.22;;;2.90;;
26536;SDS011;14204;51.262;5.488;2022-07-24T09:09:25;3.53;;;3.22;;
26536;SDS011;14204;51.262;5.488;2022-07-24T09:12:10;2.97;;;2.78;;
26536;SDS011;14204;51.262;5.488;2022-07-24T09:14:38;3.42;;;3.00;;
26536;SDS011;14204;51.262;5.488;2022-07-24T09:17:13;4.72;;;2.92;;
26536;SDS011;14204;51.262;5.488;2022-07-24T09:25:03;3.10;;;2.80;;
26536;SDS011;14204;51.262;5.488;2022-07-24T09:27:29;3.63;;;2.38;;
26536;SDS011;14204;51.262;5.488;2022-07-24T09:29:55;4.00;;;2.75;;
26536;SDS011;14204;51.262;5.488;2022-07-24T09:32:25;4.28;;;2.85;;
26536;SDS011;14204;51.262;5.488;2022-07-24T09:34:52;3.00;;;2.47;;
26536;SDS011;14204;51.262;5.488;2022-07-24T09:37:18;3.28;;;2.63;;
26536;SDS011;14204;51.262;5.488;2022-07-24T09:39:45;4.18;;;2.80;;
26536;SDS011;14204;51.262;5.488;2022-07-24T09:42:11;3.00;;;2.80;;
26536;SDS011;14204;51.262;5.488;2022-07-24T09:44:38;2.85;;;2.65;;
26536;SDS011;14204;51.262;5.488;2022-07-24T09:47:05;3.42;;;2.20;;
26536;SDS011;14204;51.262;5.488;2022-07-24T09:49:32;2.95;;;2.75;;
26536;SDS011;14204;51.262;5.488;2022-07-24T09:54:40;3.05;;;2.40;;
26536;SDS011;14204;51.262;5.488;2022-07-24T10:02:12;4.65;;;2.45;;
26536;SDS011;14204;51.262;5.488;2022-07-24T10:04:41;4.65;;;2.30;;
26536;SDS011;14204;51.262;5.488;2022-07-24T10:07:09;3.03;;;2.30;;
26536;SDS011;14204;51.262;5.488;2022-07-24T10:09:37;2.88;;;2.67;;
26536;SDS011;14204;51.262;5.488;2022-07-24T10:12:10;3.33;;;2.30;;
26536;SDS011;14204;51.262;5.488;2022-07-24T10:14:38;2.85;;;2.50;;
26536;SDS011;14204;51.262;5.488;2022-07-24T10:17:07;3.33;;;3.03;;
26536;SDS011;14204;51.262;5.488;2022-07-24T10:19:55;3.30;;;3.00;;
26536;SDS011;14204;51.262;5.488;2022-07-24T10:22:22;2.58;;;2.40;;
26536;SDS011;14204;51.262;5.488;2022-07-24T10:27:30;2.88;;;2.58;;
26536;SDS011;14204;51.262;5.488;2022-07-24T10:30:03;3.20;;;2.88;;
26536;SDS011;14204;51.262;5.488;2022-07-24T10:32:31;2.70;;;2.50;;
26536;SDS011;14204;51.262;5.488;2022-07-24T10:45:30;2.75;;;2.30;;
26536;SDS011;14204;51.262;5.488;2022-07-24T10:47:56;4.43;;;2.72;;
26536;SDS011;14204;51.262;5.488;2022-07-24T10:50:22;2.88;;;2.60;;
26536;SDS011;14204;51.262;5.488;2022-07-24T10:52:48;3.72;;;2.80;;
26536;SDS011;14204;51.262;5.488;2022-07-24T10:55:30;2.60;;;2.40;;
26536;SDS011;14204;51.262;5.488;2022-07-24T10:58:00;3.28;;;2.60;;
26536;SDS011;14204;51.262;5.488;2022-07-24T11:00:29;3.20;;;2.95;;
26536;SDS011;14204;51.262;5.488;2022-07-24T11:02:58;2.50;;;2.30;;
26536;SDS011;14204;51.262;5.488;2022-07-24T11:05:28;3.25;;;2.88;;
26536;SDS011;14204;51.262;5.488;2022-07-24T11:10:54;2.78;;;2.58;;
26536;SDS011;14204;51.262;5.488;2022-07-24T11:13:43;2.75;;;2.55;;
26536;SDS011;14204;51.262;5.488;2022-07-24T11:16:23;3.38;;;2.92;;
26536;SDS011;14204;51.262;5.488;2022-07-24T11:21:28;3.38;;;2.85;;
26536;SDS011;14204;51.262;5.488;2022-07-24T11:31:58;3.60;;;3.05;;
26536;SDS011;14204;51.262;5.488;2022-07-24T11:34:33;4.43;;;3.53;;
26536;SDS011;14204;51.262;5.488;2022-07-24T11:36:59;5.57;;;3.70;;
26536;SDS011;14204;51.262;5.488;2022-07-24T11:39:32;3.95;;;3.42;;
26536;SDS011;14204;51.262;5.488;2022-07-24T11:42:03;4.65;;;3.90;;
26536;SDS011;14204;51.262;5.488;2022-07-24T11:44:32;3.60;;;3.30;;
26536;SDS011;14204;51.262;5.488;2022-07-24T11:47:00;4.93;;;3.50;;
26536;SDS011;14204;51.262;5.488;2022-07-24T11:52:21;6.00;;;3.17;;
26536;SDS011;14204;51.262;5.488;2022-07-24T11:54:52;3.63;;;3.33;;
26536;SDS011;14204;51.262;5.488;2022-07-24T11:57:27;2.75;;;2.38;;
26536;SDS011;14204;51.262;5.488;2022-07-24T12:00:05;3.25;;;2.80;;
26536;SDS011;14204;51.262;5.488;2022-07-24T12:02:35;5.13;;;3.10;;
26536;SDS011;14204;51.262;5.488;2022-07-24T12:05:01;4.00;;;3.35;;
26536;SDS011;14204;51.262;5.488;2022-07-24T12:07:27;2.63;;;2.42;;
26536;SDS011;14204;51.262;5.488;2022-07-24T12:09:58;2.75;;;2.55;;
26536;SDS011;14204;51.262;5.488;2022-07-24T12:17:57;4.72;;;2.88;;
26536;SDS011;14204;51.262;5.488;2022-07-24T12:20:29;5.80;;;2.75;;
26536;SDS011;14204;51.262;5.488;2022-07-24T12:23:01;3.08;;;2.60;;
26536;SDS011;14204;51.262;5.488;2022-07-24T12:25:28;2.67;;;2.47;;
26536;SDS011;14204;51.262;5.488;2022-07-24T12:28:03;2.60;;;2.40;;
26536;SDS011;14204;51.262;5.488;2022-07-24T12:30:39;2.92;;;2.63;;
26536;SDS011;14204;51.262;5.488;2022-07-24T12:33:23;3.20;;;2.80;;
26536;SDS011;14204;51.262;5.488;2022-07-24T12:36:03;2.78;;;2.38;;
26536;SDS011;14204;51.262;5.488;2022-07-24T12:38:55;2.72;;;2.13;;
26536;SDS011;14204;51.262;5.488;2022-07-24T12:41:23;2.97;;;2.30;;
26536;SDS011;14204;51.262;5.488;2022-07-24T12:43:57;3.45;;;2.50;;
26536;SDS011;14204;51.262;5.488;2022-07-24T12:46:32;2.47;;;2.28;;
26536;SDS011;14204;51.262;5.488;2022-07-24T12:49:02;2.85;;;2.20;;
26536;SDS011;14204;51.262;5.488;2022-07-24T12:56:53;3.00;;;2.15;;
26536;SDS011;14204;51.262;5.488;2022-07-24T12:59:30;2.88;;;2.67;;
26536;SDS011;14204;51.262;5.488;2022-07-24T13:02:15;2.70;;;2.50;;
26536;SDS011;14204;51.262;5.488;2022-07-24T13:07:10;3.40;;;2.25;;
26536;SDS011;14204;51.262;5.488;2022-07-24T13:09:37;2.42;;;2.22;;
26536;SDS011;14204;51.262;5.488;2022-07-24T13:12:05;4.05;;;2.40;;
26536;SDS011;14204;51.262;5.488;2022-07-24T13:14:32;2.38;;;2.20;;
26536;SDS011;14204;51.262;5.488;2022-07-24T13:17:03;3.13;;;2.00;;
26536;SDS011;14204;51.262;5.488;2022-07-24T13:19:35;3.10;;;1.70;;
26536;SDS011;14204;51.262;5.488;2022-07-24T13:22:07;3.78;;;2.00;;
26536;SDS011;14204;51.262;5.488;2022-07-24T13:24:33;2.20;;;2.03;;
26536;SDS011;14204;51.262;5.488;2022-07-24T13:27:03;2.40;;;2.20;;
26536;SDS011;14204;51.262;5.488;2022-07-24T13:29:30;1.92;;;1.83;;
26536;SDS011;14204;51.262;5.488;2022-07-24T13:31:56;3.55;;;2.30;;
26536;SDS011;14204;51.262;5.488;2022-07-24T13:34:22;2.40;;;2.20;;
26536;SDS011;14204;51.262;5.488;2022-07-24T13:36:48;2.60;;;2.40;;
26536;SDS011;14204;51.262;5.488;2022-07-24T13:39:15;2.28;;;1.85;;
26536;SDS011;14204;51.262;5.488;2022-07-24T13:41:43;3.88;;;2.08;;
26536;SDS011;14204;51.262;5.488;2022-07-24T13:44:10;2.80;;;2.10;;
26536;SDS011;14204;51.262;5.488;2022-07-24T13:46:37;1.70;;;1.60;;
26536;SDS011;14204;51.262;5.488;2022-07-24T13:49:04;2.05;;;1.88;;
26536;SDS011;14204;51.262;5.488;2022-07-24T13:51:32;2.83;;;1.90;;
26536;SDS011;14204;51.262;5.488;2022-07-24T13:54:00;3.00;;;1.88;;
26536;SDS011;14204;51.262;5.488;2022-07-24T13:56:26;2.15;;;2.00;;
26536;SDS011;14204;51.262;5.488;2022-07-24T13:58:56;2.45;;;1.70;;
26536;SDS011;14204;51.262;5.488;2022-07-24T14:01:24;2.30;;;2.13;;
26536;SDS011;14204;51.262;5.488;2022-07-24T14:03:50;2.50;;;1.65;;
26536;SDS011;14204;51.262;5.488;2022-07-24T14:06:16;2.05;;;1.85;;
26536;SDS011;14204;51.262;5.488;2022-07-24T14:08:42;1.63;;;1.52;;
26536;SDS011;14204;51.262;5.488;2022-07-24T14:11:08;2.28;;;1.90;;
26536;SDS011;14204;51.262;5.488;2022-07-24T14:13:34;2.42;;;1.90;;
26536;SDS011;14204;51.262;5.488;2022-07-24T14:16:02;2.75;;;1.80;;
26536;SDS011;14204;51.262;5.488;2022-07-24T14:18:28;1.70;;;1.60;;
26536;SDS011;14204;51.262;5.488;2022-07-24T14:20:54;1.65;;;1.55;;
26536;SDS011;14204;51.262;5.488;2022-07-24T14:23:19;1.58;;;1.48;;
26536;SDS011;14204;51.262;5.488;2022-07-24T14:25:45;2.65;;;1.20;;
26536;SDS011;14204;51.262;5.488;2022-07-24T14:28:14;1.30;;;1.20;;
26536;SDS011;14204;51.262;5.488;2022-07-24T14:30:40;1.50;;;1.40;;
26536;SDS011;14204;51.262;5.488;2022-07-24T14:33:06;3.72;;;1.42;;
26536;SDS011;14204;51.262;5.488;2022-07-24T14:35:32;2.88;;;1.70;;
26536;SDS011;14204;51.262;5.488;2022-07-24T14:37:59;2.42;;;1.85;;
26536;SDS011;14204;51.262;5.488;2022-07-24T14:40:25;2.08;;;1.50;;
26536;SDS011;14204;51.262;5.488;2022-07-24T14:42:51;1.83;;;1.30;;
26536;SDS011;14204;51.262;5.488;2022-07-24T14:45:18;1.90;;;1.50;;
26536;SDS011;14204;51.262;5.488;2022-07-24T14:47:44;1.42;;;1.17;;
26536;SDS011;14204;51.262;5.488;2022-07-24T14:50:10;2.78;;;1.90;;
26536;SDS011;14204;51.262;5.488;2022-07-24T14:52:36;3.95;;;1.50;;
26536;SDS011;14204;51.262;5.488;2022-07-24T14:55:07;1.67;;;1.58;;
26536;SDS011;14204;51.262;5.488;2022-07-24T14:57:34;2.67;;;1.77;;
26536;SDS011;14204;51.262;5.488;2022-07-24T15:00:00;1.92;;;1.80;;
26536;SDS011;14204;51.262;5.488;2022-07-24T15:02:32;1.85;;;1.73;;
26536;SDS011;14204;51.262;5.488;2022-07-24T15:07:30;2.30;;;1.27;;
26536;SDS011;14204;51.262;5.488;2022-07-24T15:09:56;3.45;;;2.60;;
26536;SDS011;14204;51.262;5.488;2022-07-24T15:12:23;1.67;;;1.58;;
26536;SDS011;14204;51.262;5.488;2022-07-24T15:14:52;1.73;;;1.63;;
26536;SDS011;14204;51.262;5.488;2022-07-24T15:17:18;2.20;;;2.00;;
26536;SDS011;14204;51.262;5.488;2022-07-24T15:19:45;1.98;;;1.73;;
26536;SDS011;14204;51.262;5.488;2022-07-24T15:22:11;1.77;;;1.67;;
26536;SDS011;14204;51.262;5.488;2022-07-24T15:24:38;1.88;;;1.77;;
26536;SDS011;14204;51.262;5.488;2022-07-24T15:27:04;3.05;;;2.00;;
26536;SDS011;14204;51.262;5.488;2022-07-24T15:29:31;1.98;;;1.88;;
26536;SDS011;14204;51.262;5.488;2022-07-24T15:31:57;4.95;;;3.65;;
26536;SDS011;14204;51.262;5.488;2022-07-24T15:34:24;1.90;;;1.80;;
26536;SDS011;14204;51.262;5.488;2022-07-24T15:36:50;2.80;;;2.60;;
26536;SDS011;14204;51.262;5.488;2022-07-24T15:39:15;2.95;;;2.75;;